Time;durP1;ratioP1;P1;durP2;ratioP2;P2;SDS_P1;SDS_P2;PMS_P1;PMS_P2;Temp;Humidity;BMP_temperature;BMP_pressure;BME280_temperature;BME280_humidity;BME280_pressure;Samples;Min_cycle;Max_cycle;Signal;HPM_P1;HPM_P2
2021/09/27 00:00:13;;;;;;;8.97;8.27;;;24.80;56.50;;;;;;5083795;28;20915;-50
2021/09/27 00:02:39;;;;;;;9.37;8.60;;;24.80;56.40;;;;;;5085613;28;20499;-48
2021/09/27 00:05:09;;;;;;;8.80;8.10;;;24.80;56.30;;;;;;5086941;28;20449;-48
2021/09/27 00:07:35;;;;;;;10.00;8.40;;;24.90;56.10;;;;;;5076353;28;20479;-47
2021/09/27 00:10:01;;;;;;;9.40;8.60;;;24.80;56.10;;;;;;5084200;28;20510;-47
2021/09/27 00:12:26;;;;;;;9.50;8.70;;;24.90;56.00;;;;;;5087335;28;20195;-50
2021/09/27 00:14:52;;;;;;;9.30;8.40;;;24.90;56.10;;;;;;5071936;28;20303;-51
2021/09/27 00:17:18;;;;;;;8.83;8.13;;;24.80;56.10;;;;;;5085732;28;20187;-50
2021/09/27 00:19:43;;;;;;;10.33;9.43;;;24.80;56.10;;;;;;5078862;28;20301;-47
2021/09/27 00:22:09;;;;;;;9.57;8.50;;;24.80;56.10;;;;;;5077650;28;20238;-48
2021/09/27 00:24:35;;;;;;;10.30;8.63;;;24.80;56.20;;;;;;5075986;28;20240;-49
2021/09/27 00:27:01;;;;;;;12.23;11.07;;;24.80;56.10;;;;;;5073408;28;20184;-47
2021/09/27 00:29:27;;;;;;;11.43;10.33;;;24.90;55.70;;;;;;5072977;28;20554;-49
2021/09/27 00:31:52;;;;;;;11.70;10.50;;;24.80;55.60;;;;;;5073792;28;20442;-47
2021/09/27 00:34:18;;;;;;;11.47;10.27;;;24.70;55.70;;;;;;5074772;28;20192;-49
2021/09/27 00:36:44;;;;;;;11.90;10.80;;;24.60;55.90;;;;;;5079605;28;20586;-47
2021/09/27 00:39:10;;;;;;;12.27;11.03;;;24.50;56.10;;;;;;5089812;28;20195;-48
2021/09/27 00:41:37;;;;;;;11.67;10.50;;;24.30;56.40;;;;;;5082505;28;20219;-47
2021/09/27 00:44:03;;;;;;;11.97;10.73;;;24.10;56.90;;;;;;5075437;28;20452;-49
2021/09/27 00:46:32;;;;;;;11.70;10.60;;;23.90;57.30;;;;;;5077776;28;20448;-46
2021/09/27 00:48:58;;;;;;;11.17;10.03;;;23.70;57.80;;;;;;5081415;28;20437;-48
2021/09/27 00:51:31;;;;;;;11.30;10.20;;;23.60;58.20;;;;;;5073762;28;20438;-49
2021/09/27 00:54:12;;;;;;;11.00;10.07;;;23.60;58.50;;;;;;5073502;28;20527;-47
2021/09/27 00:56:45;;;;;;;11.20;10.17;;;23.60;58.60;;;;;;5082767;28;20466;-47
2021/09/27 00:59:12;;;;;;;14.33;11.27;;;23.50;58.60;;;;;;5081547;28;20456;-47
2021/09/27 01:01:38;;;;;;;11.50;10.50;;;23.50;58.60;;;;;;5083454;28;21211;-47
2021/09/27 01:04:04;;;;;;;12.20;11.10;;;23.50;58.70;;;;;;5079098;28;20921;-47
2021/09/27 01:06:55;;;;;;;11.83;10.63;;;23.50;58.60;;;;;;5078838;28;20816;-47
2021/09/27 01:09:48;;;;;;;12.43;11.23;;;23.40;58.60;;;;;;5089549;28;20581;-48
2021/09/27 01:12:28;;;;;;;11.97;10.87;;;23.30;58.80;;;;;;5071169;28;20490;-47
2021/09/27 01:15:10;;;;;;;12.23;11.13;;;23.20;58.90;;;;;;5072555;28;20453;-47
2021/09/27 01:17:51;;;;;;;12.70;11.57;;;23.20;59.10;;;;;;5083767;28;20527;-48
2021/09/27 01:20:36;;;;;;;12.47;11.37;;;23.10;58.80;;;;;;5075855;28;20461;-47
2021/09/27 01:23:42;;;;;;;11.57;10.57;;;23.10;59.10;;;;;;5078029;28;20476;-47
2021/09/27 01:26:41;;;;;;;11.03;10.03;;;23.10;59.20;;;;;;5070449;28;20450;-50
2021/09/27 01:29:07;;;;;;;11.40;10.40;;;23.10;59.20;;;;;;5077050;28;20487;-46
2021/09/27 01:31:32;;;;;;;11.40;10.40;;;22.90;59.70;;;;;;5076615;28;20816;-49
2021/09/27 01:34:09;;;;;;;11.97;10.87;;;22.60;61.10;;;;;;5079276;28;20195;-50
2021/09/27 01:36:46;;;;;;;12.63;11.63;;;22.50;61.60;;;;;;5081473;28;20266;-48
2021/09/27 01:39:22;;;;;;;11.27;10.17;;;22.50;61.60;;;;;;5080517;28;21220;-48
2021/09/27 01:41:58;;;;;;;11.90;10.83;;;22.50;61.40;;;;;;5083736;28;20488;-48
2021/09/27 01:44:41;;;;;;;12.07;10.97;;;22.60;61.30;;;;;;5078087;28;20468;-48
2021/09/27 01:47:47;;;;;;;12.43;11.33;;;22.70;61.10;;;;;;5078062;28;20456;-47
2021/09/27 01:50:30;;;;;;;11.43;10.43;;;22.70;60.50;;;;;;5076288;28;20449;-47
2021/09/27 01:53:09;;;;;;;10.57;9.63;;;22.80;60.30;;;;;;5078445;28;20911;-47
2021/09/27 01:55:43;;;;;;;12.77;11.47;;;22.80;60.20;;;;;;5076092;28;20460;-48
2021/09/27 01:58:20;;;;;;;10.67;9.67;;;22.80;60.20;;;;;;5074479;28;20846;-46
2021/09/27 02:00:49;;;;;;;10.70;9.40;;;22.80;60.10;;;;;;5078420;28;20909;-48
2021/09/27 02:03:18;;;;;;;10.77;9.87;;;22.70;60.20;;;;;;5076162;28;20461;-47
2021/09/27 02:06:05;;;;;;;11.33;10.33;;;22.70;60.10;;;;;;5075248;28;20483;-47
2021/09/27 02:08:57;;;;;;;11.43;10.30;;;22.70;60.00;;;;;;5071953;28;20533;-47
2021/09/27 02:11:25;;;;;;;11.70;10.67;;;22.40;61.10;;;;;;5073569;28;20514;-50
2021/09/27 02:14:02;;;;;;;11.23;9.70;;;22.30;61.10;;;;;;5077149;28;20449;-47
2021/09/27 02:16:39;;;;;;;11.93;10.83;;;22.10;62.30;;;;;;5086222;28;20856;-46
2021/09/27 02:19:14;;;;;;;10.50;9.60;;;22.20;62.00;;;;;;5076443;28;20445;-47
2021/09/27 02:21:50;;;;;;;13.60;12.20;;;22.20;62.00;;;;;;5086888;28;20507;-48
2021/09/27 02:24:44;;;;;;;12.27;11.17;;;22.20;61.60;;;;;;5090405;28;20436;-47
2021/09/27 02:27:09;;;;;;;11.50;10.47;;;22.20;62.50;;;;;;5084218;28;20463;-48
2021/09/27 02:29:38;;;;;;;10.93;9.93;;;22.20;62.30;;;;;;5078345;28;20475;-51
2021/09/27 02:32:18;;;;;;;11.97;10.53;;;22.10;62.60;;;;;;5079042;28;20627;-47
2021/09/27 02:34:56;;;;;;;10.43;9.40;;;22.10;62.50;;;;;;5080372;28;21488;-48
2021/09/27 02:37:39;;;;;;;11.30;10.33;;;22.10;63.50;;;;;;5074973;28;20850;-50
2021/09/27 02:40:11;;;;;;;12.87;11.67;;;22.20;63.00;;;;;;5077495;28;20476;-48
2021/09/27 02:42:44;;;;;;;11.37;10.37;;;22.20;62.70;;;;;;5075758;28;20551;-47
2021/09/27 02:45:10;;;;;;;10.47;9.40;;;22.20;62.80;;;;;;5083692;28;20464;-48
2021/09/27 02:47:46;;;;;;;12.10;10.30;;;22.20;62.60;;;;;;5082969;28;20796;-46
2021/09/27 02:50:18;;;;;;;12.13;10.93;;;22.30;62.50;;;;;;5080352;28;20184;-47
2021/09/27 02:52:44;;;;;;;11.07;10.07;;;22.30;62.60;;;;;;5086373;28;20474;-48
2021/09/27 02:55:15;;;;;;;10.77;9.87;;;22.30;62.30;;;;;;5078698;28;20528;-47
2021/09/27 02:57:59;;;;;;;10.20;9.20;;;22.30;62.60;;;;;;5079238;28;20192;-49
2021/09/27 03:00:33;;;;;;;10.97;9.97;;;22.40;62.60;;;;;;5080470;28;20452;-48
2021/09/27 03:03:05;;;;;;;11.30;10.30;;;22.40;62.20;;;;;;5078185;28;20929;-47
2021/09/27 03:05:42;;;;;;;11.37;10.37;;;22.40;62.20;;;;;;5080300;28;20456;-47
2021/09/27 03:08:29;;;;;;;11.93;10.83;;;22.40;61.80;;;;;;5082033;28;20441;-46
2021/09/27 03:11:13;;;;;;;10.83;9.83;;;22.40;61.80;;;;;;5084123;28;20802;-50
2021/09/27 03:14:01;;;;;;;10.53;9.37;;;22.30;62.20;;;;;;5078534;28;20987;-47
2021/09/27 03:16:45;;;;;;;10.77;9.87;;;22.20;63.00;;;;;;5079084;28;20600;-49
2021/09/27 03:19:17;;;;;;;11.80;10.67;;;22.10;63.30;;;;;;5080000;28;20799;-47
2021/09/27 03:22:32;;;;;;;9.97;9.07;;;22.20;63.20;;;;;;5084934;28;20563;-48
2021/09/27 03:25:17;;;;;;;10.90;10.00;;;22.30;63.00;;;;;;5028793;28;20532;-46
2021/09/27 03:28:01;;;;;;;9.17;8.37;;;22.30;62.60;;;;;;5080483;28;20933;-46
2021/09/27 03:31:04;;;;;;;11.00;9.90;;;22.30;62.50;;;;;;5074085;28;20795;-47
2021/09/27 03:33:44;;;;;;;10.20;9.17;;;22.40;62.30;;;;;;5077201;28;20774;-48
2021/09/27 03:36:52;;;;;;;12.10;11.00;;;22.40;62.00;;;;;;5081491;28;20452;-51
2021/09/27 03:39:29;;;;;;;11.73;10.73;;;22.40;61.80;;;;;;5086539;28;20850;-49
2021/09/27 03:42:11;;;;;;;10.03;9.23;;;22.20;62.00;;;;;;5079529;28;20500;-47
2021/09/27 03:45:06;;;;;;;10.63;9.63;;;22.20;62.30;;;;;;5078393;28;20473;-47
2021/09/27 03:47:35;;;;;;;10.17;9.23;;;22.10;62.60;;;;;;5089324;28;20463;-48
2021/09/27 03:50:19;;;;;;;12.33;11.23;;;22.00;62.80;;;;;;5080308;28;20933;-48
2021/09/27 03:52:50;;;;;;;12.60;11.43;;;21.90;63.30;;;;;;5076253;28;20466;-47
2021/09/27 03:55:39;;;;;;;12.60;11.50;;;21.70;64.30;;;;;;5088394;28;20441;-49
2021/09/27 03:58:13;;;;;;;11.60;10.50;;;21.70;64.60;;;;;;5068337;28;20560;-49
2021/09/27 04:00:49;;;;;;;13.87;12.60;;;21.70;64.80;;;;;;5081550;28;20575;-48
2021/09/27 04:03:35;;;;;;;11.93;10.70;;;21.70;64.90;;;;;;5083966;28;20524;-50
2021/09/27 04:06:27;;;;;;;11.17;10.17;;;21.70;64.70;;;;;;5076077;28;20441;-51
2021/09/27 04:09:12;;;;;;;11.93;10.83;;;21.70;64.80;;;;;;5078436;28;20560;-47
2021/09/27 04:11:56;;;;;;;12.13;11.00;;;21.60;64.90;;;;;;5073440;28;20542;-49
2021/09/27 04:14:39;;;;;;;11.63;10.53;;;21.60;64.90;;;;;;5079742;28;20449;-47
2021/09/27 04:17:13;;;;;;;13.10;11.80;;;21.60;65.30;;;;;;5082757;28;20449;-50
2021/09/27 04:20:02;;;;;;;12.47;10.83;;;21.60;65.00;;;;;;5082264;28;20446;-49
2021/09/27 04:22:41;;;;;;;11.67;10.57;;;21.60;64.90;;;;;;5077685;28;20495;-47
2021/09/27 04:25:11;;;;;;;12.67;11.57;;;21.70;64.80;;;;;;5080484;28;20996;-52
2021/09/27 04:28:10;;;;;;;10.90;9.80;;;21.70;64.70;;;;;;5079456;28;20494;-49
2021/09/27 04:31:07;;;;;;;12.40;11.20;;;21.70;64.50;;;;;;5086213;28;20863;-48
2021/09/27 04:34:05;;;;;;;11.57;10.57;;;21.60;64.70;;;;;;5079745;28;20525;-48
2021/09/27 04:36:36;;;;;;;12.93;11.80;;;21.60;65.00;;;;;;5008239;28;20556;-49
2021/09/27 04:39:09;;;;;;;11.70;10.50;;;21.60;65.00;;;;;;5071583;28;20418;-48
2021/09/27 04:41:51;;;;;;;12.47;11.27;;;21.50;65.40;;;;;;5075779;28;20968;-49
2021/09/27 04:44:43;;;;;;;12.90;11.80;;;21.60;65.00;;;;;;5074502;28;20445;-50
2021/09/27 04:47:21;;;;;;;13.87;11.47;;;21.50;64.90;;;;;;5082137;28;20464;-48
2021/09/27 04:50:16;;;;;;;13.20;12.00;;;21.40;64.80;;;;;;5080244;28;20473;-52
2021/09/27 04:53:06;;;;;;;13.03;11.73;;;21.30;65.10;;;;;;5089837;28;20441;-47
2021/09/27 04:56:09;;;;;;;12.70;11.50;;;21.20;65.20;;;;;;5083141;28;20441;-51
2021/09/27 04:58:56;;;;;;;10.23;9.13;;;21.00;66.10;;;;;;5079363;28;20449;-46
2021/09/27 05:01:55;;;;;;;10.33;9.00;;;21.00;69.90;;;;;;5076156;28;20543;-46
2021/09/27 05:04:42;;;;;;;10.47;9.53;;;21.30;68.70;;;;;;5079739;28;20449;-47
2021/09/27 05:07:33;;;;;;;11.30;9.30;;;21.60;66.40;;;;;;5079985;28;20450;-49
2021/09/27 05:10:38;;;;;;;10.73;9.70;;;21.80;64.90;;;;;;5078026;28;20816;-47
2021/09/27 05:13:31;;;;;;;10.70;9.60;;;22.00;63.60;;;;;;5074533;28;20527;-52
2021/09/27 05:16:17;;;;;;;10.70;9.70;;;22.10;62.90;;;;;;5077613;28;20441;-48
2021/09/27 05:19:21;;;;;;;12.50;9.30;;;22.20;62.30;;;;;;5076846;28;20448;-47
2021/09/27 05:22:11;;;;;;;9.13;8.33;;;22.20;61.80;;;;;;5078343;28;20491;-49
2021/09/27 05:24:48;;;;;;;10.40;9.30;;;22.30;61.50;;;;;;5074435;28;20476;-47
2021/09/27 05:27:19;;;;;;;11.30;10.20;;;22.30;61.00;;;;;;5079786;28;20457;-47
2021/09/27 05:30:01;;;;;;;9.60;8.70;;;22.40;60.70;;;;;;5080969;28;20971;-47
2021/09/27 05:32:56;;;;;;;8.33;7.63;;;22.40;60.60;;;;;;5084924;28;20792;-46
2021/09/27 05:35:33;;;;;;;9.97;9.07;;;22.40;60.40;;;;;;5081162;28;20484;-47
2021/09/27 05:38:03;;;;;;;10.33;9.37;;;22.30;60.40;;;;;;5080230;28;20928;-47
2021/09/27 05:40:41;;;;;;;9.20;8.30;;;22.30;60.40;;;;;;5082434;28;20453;-46
2021/09/27 05:43:37;;;;;;;9.83;8.93;;;22.40;60.20;;;;;;5075471;28;20492;-48
2021/09/27 05:46:38;;;;;;;9.40;8.50;;;22.40;60.00;;;;;;5076487;28;20536;-47
2021/09/27 05:49:13;;;;;;;10.80;9.80;;;22.40;60.10;;;;;;5085445;28;20471;-47
2021/09/27 05:51:51;;;;;;;8.83;8.13;;;22.40;60.30;;;;;;5082442;28;21010;-48
2021/09/27 05:54:19;;;;;;;11.17;10.17;;;22.40;60.60;;;;;;5075157;28;20448;-50
2021/09/27 05:57:06;;;;;;;11.27;10.37;;;22.40;60.40;;;;;;5078833;28;20532;-46
2021/09/27 05:59:40;;;;;;;8.70;7.93;;;22.40;60.70;;;;;;5076521;28;20446;-46
2021/09/27 06:02:31;;;;;;;8.67;8.00;;;22.50;60.70;;;;;;5077213;28;20972;-46
2021/09/27 06:05:24;;;;;;;8.53;7.83;;;22.50;61.00;;;;;;5077401;28;20441;-46
2021/09/27 06:07:57;;;;;;;10.33;9.43;;;22.60;60.50;;;;;;5082744;28;20506;-46
2021/09/27 06:10:25;;;;;;;8.30;7.60;;;22.60;60.30;;;;;;5071958;28;20446;-47
2021/09/27 06:13:19;;;;;;;8.37;7.67;;;22.50;60.10;;;;;;5070888;28;20426;-46
2021/09/27 06:16:24;;;;;;;9.63;8.73;;;22.50;60.70;;;;;;5077955;28;20434;-47
2021/09/27 06:19:13;;;;;;;8.83;8.10;;;22.60;60.80;;;;;;5085237;28;20445;-46
2021/09/27 06:22:06;;;;;;;10.07;9.17;;;22.60;60.80;;;;;;5081543;28;20564;-46
2021/09/27 06:24:56;;;;;;;8.03;7.23;;;22.70;60.70;;;;;;5089159;28;20434;-53
2021/09/27 06:27:28;;;;;;;9.37;8.57;;;22.80;60.20;;;;;;5089050;28;20506;-51
2021/09/27 06:30:30;;;;;;;10.30;9.40;;;22.90;60.10;;;;;;5078098;28;20477;-50
2021/09/27 06:33:14;;;;;;;10.50;9.60;;;23.10;60.00;;;;;;5081086;28;20445;-48
2021/09/27 06:35:42;;;;;;;10.87;9.77;;;23.20;59.40;;;;;;5089275;28;20558;-49
2021/09/27 06:38:11;;;;;;;8.63;7.93;;;22.90;60.20;;;;;;5072337;28;20448;-50
2021/09/27 06:40:44;;;;;;;8.97;8.17;;;23.10;60.10;;;;;;5080393;28;20441;-51
2021/09/27 06:43:15;;;;;;;9.80;8.60;;;23.40;59.60;;;;;;5087510;28;20528;-47
2021/09/27 06:45:40;;;;;;;10.03;9.07;;;23.60;59.00;;;;;;5083466;28;20944;-49
2021/09/27 06:48:06;;;;;;;14.53;9.57;;;23.80;58.70;;;;;;5084688;28;20445;-51
2021/09/27 06:50:32;;;;;;;9.90;8.07;;;23.90;58.40;;;;;;5078847;28;20192;-49
2021/09/27 06:52:57;;;;;;;9.33;8.53;;;23.90;58.20;;;;;;5079733;28;20258;-52
2021/09/27 06:55:23;;;;;;;9.97;8.97;;;23.90;58.20;;;;;;5087179;28;20548;-48
2021/09/27 06:57:49;;;;;;;10.13;9.33;;;24.10;58.00;;;;;;5083523;28;20196;-51
2021/09/27 07:00:14;;;;;;;9.40;8.13;;;24.10;57.70;;;;;;5083638;28;20659;-51
2021/09/27 07:02:41;;;;;;;9.83;9.03;;;24.20;57.60;;;;;;5085808;28;20227;-54
2021/09/27 07:05:09;;;;;;;9.47;8.47;;;24.00;57.50;;;;;;5091890;28;20676;-53
2021/09/27 07:07:35;;;;;;;9.70;8.60;;;23.90;58.00;;;;;;5087837;28;20459;-53
2021/09/27 07:10:01;;;;;;;10.20;9.20;;;23.90;58.00;;;;;;5089335;28;20436;-53
2021/09/27 07:12:26;;;;;;;8.90;8.00;;;24.00;58.10;;;;;;5064854;28;20457;-54
2021/09/27 07:14:52;;;;;;;9.63;8.73;;;24.10;57.80;;;;;;5090951;28;20680;-51
2021/09/27 07:17:18;;;;;;;11.00;10.00;;;24.30;57.60;;;;;;5087070;28;20240;-51
2021/09/27 07:19:43;;;;;;;9.90;8.97;;;24.20;57.60;;;;;;5086986;28;20214;-50
2021/09/27 07:22:09;;;;;;;9.57;8.67;;;24.20;57.70;;;;;;5084047;28;20305;-52
2021/09/27 07:24:36;;;;;;;9.97;9.17;;;24.20;57.70;;;;;;5087527;28;20270;-51
2021/09/27 07:27:02;;;;;;;9.83;8.97;;;24.30;57.60;;;;;;5090386;28;20278;-52
2021/09/27 07:29:28;;;;;;;9.57;8.53;;;24.50;57.40;;;;;;5091156;28;20472;-52
2021/09/27 07:31:53;;;;;;;9.93;9.03;;;24.50;57.10;;;;;;5087240;28;20974;-52
2021/09/27 07:34:20;;;;;;;8.37;7.50;;;24.60;57.10;;;;;;5087410;28;20223;-52
2021/09/27 07:36:46;;;;;;;11.10;9.90;;;24.60;56.80;;;;;;5087599;28;20278;-52
2021/09/27 07:39:12;;;;;;;8.93;8.13;;;24.80;56.60;;;;;;5089031;28;20437;-52
2021/09/27 07:41:38;;;;;;;15.00;8.00;;;25.00;56.40;;;;;;5083281;28;20470;-52
2021/09/27 07:44:05;;;;;;;8.60;7.77;;;25.10;56.10;;;;;;5085244;28;20277;-52
2021/09/27 07:46:31;;;;;;;8.30;7.60;;;25.20;55.60;;;;;;5088911;28;20651;-49
2021/09/27 07:48:57;;;;;;;9.30;8.40;;;25.10;55.30;;;;;;5079525;28;20449;-49
2021/09/27 07:51:25;;;;;;;8.13;7.37;;;25.10;55.60;;;;;;5083880;28;20811;-49
2021/09/27 07:53:50;;;;;;;8.70;8.00;;;25.20;55.50;;;;;;5088812;28;20225;-51
2021/09/27 07:56:17;;;;;;;9.23;8.37;;;25.40;55.00;;;;;;5092780;28;20455;-47
2021/09/27 07:58:42;;;;;;;9.50;8.30;;;25.50;54.40;;;;;;5072819;28;20267;-48
2021/09/27 08:01:08;;;;;;;9.40;8.60;;;25.60;54.20;;;;;;5080156;28;20533;-48
2021/09/27 08:03:34;;;;;;;9.13;8.43;;;25.70;54.20;;;;;;5080750;28;20636;-47
2021/09/27 08:06:00;;;;;;;10.00;9.10;;;25.70;54.20;;;;;;5073900;28;20215;-47
2021/09/27 08:08:25;;;;;;;9.43;8.53;;;25.90;53.80;;;;;;5071005;28;20190;-47
2021/09/27 08:10:51;;;;;;;8.83;8.03;;;25.90;53.50;;;;;;5072809;28;20191;-47
2021/09/27 08:13:17;;;;;;;13.00;7.80;;;26.00;53.10;;;;;;5075220;28;20194;-48
2021/09/27 08:15:46;;;;;;;9.20;8.40;;;26.00;53.00;;;;;;5092290;28;20191;-47
2021/09/27 08:18:13;;;;;;;9.47;8.53;;;26.00;52.80;;;;;;5092662;28;20194;-48
2021/09/27 08:20:50;;;;;;;10.33;8.70;;;25.90;52.70;;;;;;5092823;28;20425;-47
2021/09/27 08:23:16;;;;;;;9.00;8.20;;;26.10;52.70;;;;;;5092262;28;20480;-48
2021/09/27 08:25:42;;;;;;;8.67;7.77;;;26.10;52.80;;;;;;5092176;28;20516;-47
2021/09/27 08:28:11;;;;;;;9.57;8.67;;;26.10;52.50;;;;;;5092347;28;21086;-48
2021/09/27 08:30:42;;;;;;;8.60;7.90;;;25.90;53.10;;;;;;5083726;28;20247;-47
2021/09/27 08:33:08;;;;;;;8.47;7.70;;;26.00;53.50;;;;;;5088199;28;20508;-49
2021/09/27 08:35:36;;;;;;;10.97;8.73;;;26.00;53.00;;;;;;5078845;28;20532;-48
2021/09/27 08:38:04;;;;;;;9.10;8.30;;;26.10;53.20;;;;;;5079534;28;20438;-48
2021/09/27 08:40:41;;;;;;;8.43;7.63;;;26.10;53.10;;;;;;5071777;28;20423;-48
2021/09/27 08:43:24;;;;;;;8.50;7.80;;;26.00;52.90;;;;;;5071919;28;20513;-49
2021/09/27 08:45:50;;;;;;;8.60;7.70;;;26.10;53.30;;;;;;5072183;28;20450;-48
2021/09/27 08:48:23;;;;;;;9.30;8.50;;;26.10;53.00;;;;;;5073662;28;20437;-48
2021/09/27 08:50:48;;;;;;;9.80;8.90;;;26.20;52.60;;;;;;5071918;28;20418;-49
2021/09/27 08:53:26;;;;;;;8.90;8.10;;;26.40;52.50;;;;;;5071948;28;20441;-47
2021/09/27 08:56:00;;;;;;;9.07;8.17;;;26.50;52.20;;;;;;5073944;28;20207;-47
2021/09/27 08:58:48;;;;;;;8.90;8.00;;;26.40;52.30;;;;;;5085836;28;20442;-49
2021/09/27 09:01:33;;;;;;;8.13;7.43;;;26.30;52.70;;;;;;5084612;28;20487;-50
2021/09/27 09:04:25;;;;;;;7.80;7.10;;;26.60;52.60;;;;;;5071440;28;20480;-48
2021/09/27 09:06:56;;;;;;;8.20;6.87;;;26.80;51.30;;;;;;5071924;28;20929;-48
2021/09/27 09:09:47;;;;;;;8.93;8.13;;;27.00;50.30;;;;;;5081693;28;20425;-51
2021/09/27 09:12:30;;;;;;;8.20;7.40;;;26.90;50.40;;;;;;5088163;28;20449;-48
2021/09/27 09:15:26;;;;;;;7.17;6.60;;;27.20;50.90;;;;;;5071380;28;20434;-49
2021/09/27 09:18:10;;;;;;;7.17;6.47;;;27.40;49.70;;;;;;5065833;28;20441;-51
2021/09/27 09:20:57;;;;;;;6.87;5.80;;;27.70;49.40;;;;;;5089523;28;20445;-48
2021/09/27 09:23:49;;;;;;;6.37;5.77;;;27.80;49.40;;;;;;5087883;28;20497;-50
2021/09/27 09:26:17;;;;;;;4.87;4.53;;;27.80;47.50;;;;;;5067147;28;20556;-50
2021/09/27 09:28:47;;;;;;;5.40;4.90;;;28.00;46.90;;;;;;5069441;28;20541;-49
2021/09/27 09:31:17;;;;;;;5.60;5.10;;;28.00;46.30;;;;;;5071361;28;20457;-48
2021/09/27 09:33:55;;;;;;;5.07;4.57;;;28.00;46.10;;;;;;5086771;28;20449;-48
2021/09/27 09:36:30;;;;;;;5.60;4.93;;;27.90;45.80;;;;;;5083112;28;20433;-48
2021/09/27 09:38:56;;;;;;;6.50;5.07;;;28.00;46.40;;;;;;5070720;28;20445;-49
2021/09/27 09:41:29;;;;;;;4.87;4.47;;;28.00;46.60;;;;;;5071371;28;20430;-48
2021/09/27 09:43:55;;;;;;;3.97;3.67;;;28.10;46.50;;;;;;5070861;28;20188;-48
2021/09/27 09:46:31;;;;;;;4.93;3.83;;;28.20;45.50;;;;;;5079674;28;20444;-51
2021/09/27 09:49:16;;;;;;;7.17;4.67;;;28.20;44.50;;;;;;5087367;28;20207;-49
2021/09/27 09:51:47;;;;;;;5.40;4.50;;;28.10;44.90;;;;;;5090185;28;20427;-48
2021/09/27 09:54:25;;;;;;;4.50;4.10;;;28.10;45.20;;;;;;5090743;28;20523;-48
2021/09/27 09:57:03;;;;;;;8.30;4.33;;;28.10;45.60;;;;;;5081154;28;20445;-49
2021/09/27 09:59:39;;;;;;;4.77;4.47;;;28.20;45.40;;;;;;5070352;28;20484;-48
2021/09/27 10:02:17;;;;;;;5.10;4.70;;;28.40;45.10;;;;;;5071406;28;20841;-48
2021/09/27 10:04:48;;;;;;;4.57;4.17;;;28.50;45.10;;;;;;5070872;28;20422;-51
2021/09/27 10:07:19;;;;;;;4.40;4.07;;;28.70;45.10;;;;;;5074191;28;20441;-49
2021/09/27 10:09:51;;;;;;;4.40;4.00;;;28.80;43.60;;;;;;5070341;28;20426;-48
2021/09/27 10:12:42;;;;;;;4.57;4.23;;;28.70;44.20;;;;;;5071213;28;20438;-50
2021/09/27 10:15:12;;;;;;;3.47;3.17;;;28.70;43.40;;;;;;5070543;28;20421;-48
2021/09/27 10:17:38;;;;;;;3.83;3.57;;;28.70;43.10;;;;;;5077510;28;20780;-48
2021/09/27 10:20:25;;;;;;;3.53;3.23;;;28.80;42.60;;;;;;5090331;28;20418;-49
2021/09/27 10:22:59;;;;;;;3.70;3.40;;;28.80;42.50;;;;;;5089357;28;20484;-52
2021/09/27 10:25:27;;;;;;;3.50;3.30;;;28.70;42.90;;;;;;5090687;28;20794;-51
2021/09/27 10:27:53;;;;;;;2.73;2.57;;;28.70;43.30;;;;;;5090293;28;20433;-50
2021/09/27 10:30:24;;;;;;;3.33;3.03;;;28.60;42.90;;;;;;5083630;28;20476;-51
2021/09/27 10:32:58;;;;;;;3.20;2.90;;;28.70;42.40;;;;;;5084373;28;20190;-47
2021/09/27 10:35:24;;;;;;;4.10;3.47;;;28.80;41.80;;;;;;5081163;28;20799;-47
2021/09/27 10:37:59;;;;;;;3.10;2.80;;;28.80;42.00;;;;;;5071176;28;20424;-49
2021/09/27 10:40:25;;;;;;;6.23;3.33;;;28.90;42.10;;;;;;5092218;28;20187;-49
2021/09/27 10:42:52;;;;;;;5.13;3.40;;;28.90;41.70;;;;;;5079654;28;20907;-47
2021/09/27 10:45:20;;;;;;;4.17;3.80;;;28.90;42.30;;;;;;5074195;28;20306;-49
2021/09/27 10:47:51;;;;;;;3.60;3.30;;;28.90;42.40;;;;;;5074800;28;20715;-50
2021/09/27 10:50:29;;;;;;;4.03;3.63;;;28.90;42.70;;;;;;5078581;28;20494;-48
2021/09/27 10:53:14;;;;;;;4.20;3.80;;;28.90;42.20;;;;;;5074351;28;20452;-48
2021/09/27 10:55:55;;;;;;;3.47;3.27;;;29.00;42.30;;;;;;5074541;28;20581;-47
2021/09/27 10:58:39;;;;;;;3.60;3.40;;;29.00;42.10;;;;;;5081602;28;20434;-48
2021/09/27 11:01:08;;;;;;;4.40;4.10;;;28.90;41.80;;;;;;5075559;28;20510;-48
2021/09/27 11:03:33;;;;;;;4.10;3.70;;;28.80;42.40;;;;;;5073556;28;20485;-47
2021/09/27 11:06:19;;;;;;;3.90;3.60;;;28.80;42.80;;;;;;5074265;28;20515;-47
2021/09/27 11:08:44;;;;;;;3.80;3.50;;;28.70;42.80;;;;;;5073615;28;20221;-51
2021/09/27 11:11:42;;;;;;;4.87;3.73;;;28.60;42.90;;;;;;5074147;28;20513;-49
2021/09/27 11:14:43;;;;;;;4.03;3.60;;;28.60;42.80;;;;;;5041821;28;20215;-48
2021/09/27 11:17:31;;;;;;;4.27;3.90;;;28.60;42.90;;;;;;5028223;28;20446;-47
2021/09/27 11:20:23;;;;;;;4.23;3.93;;;28.70;43.60;;;;;;5073092;28;20448;-48
2021/09/27 11:22:54;;;;;;;3.67;3.37;;;28.80;43.10;;;;;;5089974;28;20917;-47
2021/09/27 11:25:22;;;;;;;4.00;3.70;;;28.80;42.70;;;;;;5093772;28;20767;-49
2021/09/27 11:28:23;;;;;;;4.93;3.37;;;28.90;43.10;;;;;;5094072;28;20512;-49
2021/09/27 11:30:57;;;;;;;3.47;3.17;;;29.00;43.40;;;;;;5082759;28;20421;-49
2021/09/27 11:33:32;;;;;;;4.37;4.03;;;29.00;43.70;;;;;;5079489;28;21290;-47
2021/09/27 11:36:05;;;;;;;3.73;3.43;;;29.10;44.10;;;;;;5089071;28;20441;-48
2021/09/27 11:38:42;;;;;;;3.67;3.37;;;29.20;44.00;;;;;;5072920;28;20484;-48
2021/09/27 11:41:10;;;;;;;3.30;3.10;;;29.10;44.00;;;;;;5073371;28;20422;-49
2021/09/27 11:43:48;;;;;;;4.53;4.13;;;29.10;43.70;;;;;;5076981;28;20448;-49
2021/09/27 11:46:26;;;;;;;3.90;3.60;;;29.20;44.30;;;;;;5073853;28;20504;-48
2021/09/27 11:49:02;;;;;;;3.70;3.50;;;29.20;43.90;;;;;;5072322;28;20517;-49
2021/09/27 11:51:30;;;;;;;4.17;3.77;;;29.20;43.80;;;;;;5083466;28;21046;-50
2021/09/27 11:54:10;;;;;;;3.90;3.03;;;29.30;43.60;;;;;;5072733;28;20933;-50
2021/09/27 11:57:01;;;;;;;4.27;3.37;;;29.30;43.80;;;;;;5076408;28;20441;-48
2021/09/27 11:59:53;;;;;;;3.77;3.47;;;29.40;43.30;;;;;;5086312;28;20937;-48
2021/09/27 12:02:26;;;;;;;3.40;3.07;;;29.60;42.60;;;;;;5073158;28;20493;-50
2021/09/27 12:05:10;;;;;;;4.00;3.60;;;29.80;42.90;;;;;;5080319;28;20431;-48
2021/09/27 12:07:43;;;;;;;3.10;2.90;;;29.90;42.10;;;;;;5072814;28;20438;-48
2021/09/27 12:10:15;;;;;;;3.20;2.90;;;30.00;40.40;;;;;;5070596;28;21008;-51
2021/09/27 12:12:59;;;;;;;5.60;3.30;;;30.10;39.90;;;;;;5073419;28;20425;-50
2021/09/27 12:15:31;;;;;;;3.00;2.80;;;30.10;40.00;;;;;;5085098;28;20433;-48
2021/09/27 12:17:57;;;;;;;4.03;3.37;;;30.10;39.70;;;;;;5072795;28;20471;-50
2021/09/27 12:20:26;;;;;;;3.30;3.10;;;30.10;40.40;;;;;;5091113;28;20425;-49
2021/09/27 12:22:59;;;;;;;3.10;2.90;;;30.00;40.30;;;;;;5085665;28;20227;-51
2021/09/27 12:25:31;;;;;;;4.03;3.10;;;30.10;40.00;;;;;;5072817;28;20567;-50
2021/09/27 12:28:05;;;;;;;3.07;2.87;;;30.10;39.50;;;;;;5072416;28;20458;-48
2021/09/27 12:30:33;;;;;;;2.83;2.63;;;30.00;39.30;;;;;;5086813;28;20453;-50
2021/09/27 12:33:15;;;;;;;3.10;2.90;;;29.80;39.30;;;;;;5091336;28;20433;-49
2021/09/27 12:35:46;;;;;;;3.00;2.80;;;29.70;39.50;;;;;;5072639;28;20468;-49
2021/09/27 12:38:17;;;;;;;2.70;2.50;;;29.80;38.80;;;;;;5071272;28;20449;-49
2021/09/27 12:40:47;;;;;;;3.30;3.07;;;29.80;38.90;;;;;;5072177;28;20426;-51
2021/09/27 12:43:19;;;;;;;3.03;2.83;;;29.80;38.70;;;;;;5071826;28;20515;-49
2021/09/27 12:45:46;;;;;;;3.00;2.70;;;29.80;38.70;;;;;;5072553;28;20418;-50
2021/09/27 12:48:27;;;;;;;3.00;2.70;;;29.70;38.80;;;;;;5081337;28;20434;-52
2021/09/27 12:50:59;;;;;;;3.50;3.20;;;29.60;39.20;;;;;;5081172;28;20807;-48
2021/09/27 12:53:57;;;;;;;3.30;2.50;;;29.50;38.90;;;;;;5071891;28;20521;-49
2021/09/27 12:56:22;;;;;;;3.23;2.93;;;29.60;38.90;;;;;;5050757;28;20511;-50
2021/09/27 12:59:00;;;;;;;2.77;2.30;;;29.50;38.90;;;;;;5087281;28;20437;-50
2021/09/27 13:01:28;;;;;;;2.57;2.30;;;29.50;39.30;;;;;;5071701;28;20261;-47
2021/09/27 13:04:07;;;;;;;3.40;3.10;;;29.40;39.10;;;;;;5069853;28;20491;-49
2021/09/27 13:06:48;;;;;;;2.43;2.10;;;29.50;39.00;;;;;;5083856;28;20785;-48
2021/09/27 13:09:24;;;;;;;3.03;2.40;;;29.50;39.50;;;;;;5082923;28;20445;-52
2021/09/27 13:12:21;;;;;;;3.20;2.87;;;29.30;39.80;;;;;;5071638;28;20426;-48
2021/09/27 13:14:53;;;;;;;3.50;3.20;;;29.30;39.80;;;;;;5084195;28;20433;-51
2021/09/27 13:17:24;;;;;;;3.27;2.97;;;29.10;39.90;;;;;;5072365;28;20917;-51
2021/09/27 13:19:53;;;;;;;3.57;2.60;;;29.10;39.70;;;;;;5071838;28;20426;-50
2021/09/27 13:22:46;;;;;;;3.30;2.97;;;29.10;39.50;;;;;;5077677;28;20489;-52
2021/09/27 13:25:21;;;;;;;2.73;2.63;;;29.00;39.60;;;;;;5084499;28;20443;-48
2021/09/27 13:28:00;;;;;;;2.70;2.13;;;29.00;39.70;;;;;;5076029;28;20449;-53